Bridgewater, Michigan
Current Conditions -  °F | °C
As of 1:53 PM on Thursday 18 Dec 2014 (Local Time) from KARB Reporting Station
Overcast Overcast  
Wind Chill: 24°   Ceiling: 2600
Heat Index: 32°   Visibility: 10mi
Dew Point: 26°   Wind: 10mph
Humidity: 79%   Direction: 280°W
Pressure: 30.16"   Gusts: NA
Location:  42.16°N, 83.9°W
Report Text: KARB 181853Z AUTO 28009KT 10SM SCT018 OVC026 00/M03 A3016 RMK AO2 SLP222 T00001033 $
Loading
Personal Weather Stations






























Interactive Weather Map New forecast layout! Learn more

10-Day Weather Forecast

Advertisements
Track Severe Weather on mobile